sensor_id;sensor_type;location;lat;lon;timestamp;temperature;humidity
41720;DHT22;27405;53.316;-6.294;2024-01-27T00:00:08;7.50;99.90
41720;DHT22;27405;53.316;-6.294;2024-01-27T00:02:34;7.50;99.90
41720;DHT22;27405;53.316;-6.294;2024-01-27T00:05:00;7.60;99.90
41720;DHT22;27405;53.316;-6.294;2024-01-27T00:07:25;7.60;99.90
41720;DHT22;27405;53.316;-6.294;2024-01-27T00:09:52;7.50;99.90
41720;DHT22;27405;53.316;-6.294;2024-01-27T00:12:18;7.60;99.90
41720;DHT22;27405;53.316;-6.294;2024-01-27T00:14:44;7.50;99.90
41720;DHT22;27405;53.316;-6.294;2024-01-27T00:17:10;7.50;99.90
41720;DHT22;27405;53.316;-6.294;2024-01-27T00:19:35;7.50;99.90
41720;DHT22;27405;53.316;-6.294;2024-01-27T00:22:01;7.50;99.90
41720;DHT22;27405;53.316;-6.294;2024-01-27T00:24:27;7.60;99.90
41720;DHT22;27405;53.316;-6.294;2024-01-27T00:26:53;7.60;99.90
41720;DHT22;27405;53.316;-6.294;2024-01-27T00:29:19;7.70;99.90
41720;DHT22;27405;53.316;-6.294;2024-01-27T00:31:44;7.60;99.90
41720;DHT22;27405;53.316;-6.294;2024-01-27T00:34:10;7.70;99.90
41720;DHT22;27405;53.316;-6.294;2024-01-27T00:36:36;7.70;99.90
41720;DHT22;27405;53.316;-6.294;2024-01-27T00:39:04;7.70;99.90
41720;DHT22;27405;53.316;-6.294;2024-01-27T00:41:31;7.80;99.90
41720;DHT22;27405;53.316;-6.294;2024-01-27T00:43:57;7.80;99.90
41720;DHT22;27405;53.316;-6.294;2024-01-27T00:46:22;7.80;99.90
41720;DHT22;27405;53.316;-6.294;2024-01-27T00:48:49;7.80;99.90
41720;DHT22;27405;53.316;-6.294;2024-01-27T00:51:14;7.80;99.90
41720;DHT22;27405;53.316;-6.294;2024-01-27T00:53:40;7.90;99.90
41720;DHT22;27405;53.316;-6.294;2024-01-27T00:56:06;7.90;99.90
41720;DHT22;27405;53.316;-6.294;2024-01-27T00:58:33;7.90;99.90
41720;DHT22;27405;53.316;-6.294;2024-01-27T01:01:00;7.90;99.90
41720;DHT22;27405;53.316;-6.294;2024-01-27T01:03:26;7.90;99.90
41720;DHT22;27405;53.316;-6.294;2024-01-27T01:05:52;7.90;99.90
41720;DHT22;27405;53.316;-6.294;2024-01-27T01:08:18;7.90;99.90
41720;DHT22;27405;53.316;-6.294;2024-01-27T01:10:44;7.90;99.90
41720;DHT22;27405;53.316;-6.294;2024-01-27T01:13:10;7.90;99.90
41720;DHT22;27405;53.316;-6.294;2024-01-27T01:15:35;7.90;99.90
41720;DHT22;27405;53.316;-6.294;2024-01-27T01:18:01;7.90;99.90
41720;DHT22;27405;53.316;-6.294;2024-01-27T01:20:27;7.90;99.90
41720;DHT22;27405;53.316;-6.294;2024-01-27T01:22:53;7.90;99.90
41720;DHT22;27405;53.316;-6.294;2024-01-27T01:25:18;7.90;99.90
41720;DHT22;27405;53.316;-6.294;2024-01-27T01:27:45;7.90;99.90
41720;DHT22;27405;53.316;-6.294;2024-01-27T01:30:11;8.00;99.90
41720;DHT22;27405;53.316;-6.294;2024-01-27T01:32:37;7.90;99.90
41720;DHT22;27405;53.316;-6.294;2024-01-27T01:35:03;7.90;99.90
41720;DHT22;27405;53.316;-6.294;2024-01-27T01:37:29;8.00;99.90
41720;DHT22;27405;53.316;-6.294;2024-01-27T01:39:55;8.00;99.90
41720;DHT22;27405;53.316;-6.294;2024-01-27T01:42:20;8.00;99.90
41720;DHT22;27405;53.316;-6.294;2024-01-27T01:44:51;8.00;99.90
41720;DHT22;27405;53.316;-6.294;2024-01-27T01:47:16;8.00;99.90
41720;DHT22;27405;53.316;-6.294;2024-01-27T01:49:42;8.00;99.90
41720;DHT22;27405;53.316;-6.294;2024-01-27T01:52:08;8.00;99.90
41720;DHT22;27405;53.316;-6.294;2024-01-27T01:54:34;8.00;99.90
41720;DHT22;27405;53.316;-6.294;2024-01-27T01:57:00;8.10;99.90
41720;DHT22;27405;53.316;-6.294;2024-01-27T01:59:26;8.00;99.90
41720;DHT22;27405;53.316;-6.294;2024-01-27T02:01:52;8.00;99.90
41720;DHT22;27405;53.316;-6.294;2024-01-27T02:04:17;8.00;99.90
41720;DHT22;27405;53.316;-6.294;2024-01-27T02:06:43;8.00;99.90
41720;DHT22;27405;53.316;-6.294;2024-01-27T02:09:09;8.00;99.90
41720;DHT22;27405;53.316;-6.294;2024-01-27T02:11:35;8.10;99.90
41720;DHT22;27405;53.316;-6.294;2024-01-27T02:14:01;8.10;99.90
41720;DHT22;27405;53.316;-6.294;2024-01-27T02:16:26;8.10;99.90
41720;DHT22;27405;53.316;-6.294;2024-01-27T02:18:52;8.10;99.90
41720;DHT22;27405;53.316;-6.294;2024-01-27T02:21:18;8.20;99.90
41720;DHT22;27405;53.316;-6.294;2024-01-27T02:23:43;8.20;99.90
41720;DHT22;27405;53.316;-6.294;2024-01-27T02:26:09;8.20;99.90
41720;DHT22;27405;53.316;-6.294;2024-01-27T02:28:35;8.20;99.90
41720;DHT22;27405;53.316;-6.294;2024-01-27T02:31:01;8.20;99.90
41720;DHT22;27405;53.316;-6.294;2024-01-27T02:33:26;8.20;99.90
41720;DHT22;27405;53.316;-6.294;2024-01-27T02:35:52;8.20;99.90
41720;DHT22;27405;53.316;-6.294;2024-01-27T02:38:18;8.20;99.90
41720;DHT22;27405;53.316;-6.294;2024-01-27T02:40:43;8.20;99.90
41720;DHT22;27405;53.316;-6.294;2024-01-27T02:43:09;8.20;99.90
41720;DHT22;27405;53.316;-6.294;2024-01-27T02:45:35;8.10;99.90
41720;DHT22;27405;53.316;-6.294;2024-01-27T02:48:00;8.20;99.90
41720;DHT22;27405;53.316;-6.294;2024-01-27T02:50:27;8.10;99.90
41720;DHT22;27405;53.316;-6.294;2024-01-27T02:52:53;8.10;99.90
41720;DHT22;27405;53.316;-6.294;2024-01-27T02:55:18;8.10;99.90
41720;DHT22;27405;53.316;-6.294;2024-01-27T02:57:44;8.20;99.90
41720;DHT22;27405;53.316;-6.294;2024-01-27T03:00:10;8.20;99.90
41720;DHT22;27405;53.316;-6.294;2024-01-27T03:02:36;8.20;99.90
41720;DHT22;27405;53.316;-6.294;2024-01-27T03:05:02;8.20;99.90
41720;DHT22;27405;53.316;-6.294;2024-01-27T03:07:27;8.10;99.90
41720;DHT22;27405;53.316;-6.294;2024-01-27T03:09:53;8.10;99.90
41720;DHT22;27405;53.316;-6.294;2024-01-27T03:12:19;8.10;99.90
41720;DHT22;27405;53.316;-6.294;2024-01-27T03:14:45;8.10;99.90
41720;DHT22;27405;53.316;-6.294;2024-01-27T03:17:11;8.10;99.90
41720;DHT22;27405;53.316;-6.294;2024-01-27T03:19:37;8.10;99.90
41720;DHT22;27405;53.316;-6.294;2024-01-27T03:22:03;8.10;99.90
41720;DHT22;27405;53.316;-6.294;2024-01-27T03:24:28;8.20;99.90
41720;DHT22;27405;53.316;-6.294;2024-01-27T03:26:54;8.20;99.90
41720;DHT22;27405;53.316;-6.294;2024-01-27T03:29:20;8.20;99.90
41720;DHT22;27405;53.316;-6.294;2024-01-27T03:31:45;8.10;99.90
41720;DHT22;27405;53.316;-6.294;2024-01-27T03:34:11;8.10;99.90
41720;DHT22;27405;53.316;-6.294;2024-01-27T03:36:37;8.10;99.90
41720;DHT22;27405;53.316;-6.294;2024-01-27T03:39:02;8.10;99.90
41720;DHT22;27405;53.316;-6.294;2024-01-27T03:41:29;8.10;99.90
41720;DHT22;27405;53.316;-6.294;2024-01-27T03:43:54;8.10;99.90
41720;DHT22;27405;53.316;-6.294;2024-01-27T03:46:20;8.10;99.90
41720;DHT22;27405;53.316;-6.294;2024-01-27T03:48:46;8.10;99.90
41720;DHT22;27405;53.316;-6.294;2024-01-27T03:51:11;8.10;99.90
41720;DHT22;27405;53.316;-6.294;2024-01-27T03:53:37;8.10;99.90
41720;DHT22;27405;53.316;-6.294;2024-01-27T03:56:03;8.10;99.90
41720;DHT22;27405;53.316;-6.294;2024-01-27T03:58:30;8.10;99.90
41720;DHT22;27405;53.316;-6.294;2024-01-27T04:00:57;8.10;99.90
41720;DHT22;27405;53.316;-6.294;2024-01-27T04:03:23;8.10;99.90
41720;DHT22;27405;53.316;-6.294;2024-01-27T04:05:48;8.10;99.90
41720;DHT22;27405;53.316;-6.294;2024-01-27T04:08:14;8.10;99.90
41720;DHT22;27405;53.316;-6.294;2024-01-27T04:10:40;8.10;99.90
41720;DHT22;27405;53.316;-6.294;2024-01-27T04:13:05;8.10;99.90
41720;DHT22;27405;53.316;-6.294;2024-01-27T04:15:33;8.10;99.90
41720;DHT22;27405;53.316;-6.294;2024-01-27T04:18:04;8.10;99.90
41720;DHT22;27405;53.316;-6.294;2024-01-27T04:20:30;8.10;99.90
41720;DHT22;27405;53.316;-6.294;2024-01-27T04:22:56;8.10;99.90
41720;DHT22;27405;53.316;-6.294;2024-01-27T04:25:22;8.10;99.90
41720;DHT22;27405;53.316;-6.294;2024-01-27T04:27:47;8.10;99.90
41720;DHT22;27405;53.316;-6.294;2024-01-27T04:30:13;8.10;99.90
41720;DHT22;27405;53.316;-6.294;2024-01-27T04:32:39;8.20;99.90
41720;DHT22;27405;53.316;-6.294;2024-01-27T04:35:08;8.10;99.90
41720;DHT22;27405;53.316;-6.294;2024-01-27T04:37:34;8.20;99.90
41720;DHT22;27405;53.316;-6.294;2024-01-27T04:39:59;8.10;99.90
41720;DHT22;27405;53.316;-6.294;2024-01-27T04:42:25;8.20;99.90
41720;DHT22;27405;53.316;-6.294;2024-01-27T04:44:51;8.10;99.90
41720;DHT22;27405;53.316;-6.294;2024-01-27T04:47:17;8.10;99.90
41720;DHT22;27405;53.316;-6.294;2024-01-27T04:49:42;8.20;99.90
41720;DHT22;27405;53.316;-6.294;2024-01-27T04:52:08;8.20;99.90
41720;DHT22;27405;53.316;-6.294;2024-01-27T04:54:34;8.20;99.90
41720;DHT22;27405;53.316;-6.294;2024-01-27T04:56:59;8.20;99.90
41720;DHT22;27405;53.316;-6.294;2024-01-27T04:59:25;8.20;99.90
41720;DHT22;27405;53.316;-6.294;2024-01-27T05:01:51;8.20;99.90
41720;DHT22;27405;53.316;-6.294;2024-01-27T05:04:16;8.20;99.90
41720;DHT22;27405;53.316;-6.294;2024-01-27T05:06:45;8.20;99.90
41720;DHT22;27405;53.316;-6.294;2024-01-27T05:09:11;8.20;99.90
41720;DHT22;27405;53.316;-6.294;2024-01-27T05:11:37;8.30;99.90
41720;DHT22;27405;53.316;-6.294;2024-01-27T05:14:03;8.30;99.90
41720;DHT22;27405;53.316;-6.294;2024-01-27T05:16:29;8.30;99.90
41720;DHT22;27405;53.316;-6.294;2024-01-27T05:18:54;8.30;99.90
41720;DHT22;27405;53.316;-6.294;2024-01-27T05:21:20;8.30;99.90
41720;DHT22;27405;53.316;-6.294;2024-01-27T05:23:46;8.30;99.90
41720;DHT22;27405;53.316;-6.294;2024-01-27T05:26:11;8.30;99.90
41720;DHT22;27405;53.316;-6.294;2024-01-27T05:28:37;8.30;99.90
41720;DHT22;27405;53.316;-6.294;2024-01-27T05:31:07;8.30;99.90
41720;DHT22;27405;53.316;-6.294;2024-01-27T05:33:33;8.30;99.90
41720;DHT22;27405;53.316;-6.294;2024-01-27T05:35:58;8.30;99.90
41720;DHT22;27405;53.316;-6.294;2024-01-27T05:38:24;8.40;99.90
41720;DHT22;27405;53.316;-6.294;2024-01-27T05:40:51;8.40;99.90
41720;DHT22;27405;53.316;-6.294;2024-01-27T05:43:17;8.40;99.90
41720;DHT22;27405;53.316;-6.294;2024-01-27T05:45:43;8.40;99.90
41720;DHT22;27405;53.316;-6.294;2024-01-27T05:48:10;8.40;99.90
41720;DHT22;27405;53.316;-6.294;2024-01-27T05:50:36;8.50;99.90
41720;DHT22;27405;53.316;-6.294;2024-01-27T05:53:01;8.50;99.90
41720;DHT22;27405;53.316;-6.294;2024-01-27T05:55:27;8.50;99.90
41720;DHT22;27405;53.316;-6.294;2024-01-27T05:57:53;8.50;99.90
41720;DHT22;27405;53.316;-6.294;2024-01-27T06:00:20;8.50;99.90
41720;DHT22;27405;53.316;-6.294;2024-01-27T06:02:46;8.50;99.90
41720;DHT22;27405;53.316;-6.294;2024-01-27T06:05:12;8.50;99.90
41720;DHT22;27405;53.316;-6.294;2024-01-27T06:07:38;8.50;99.90
41720;DHT22;27405;53.316;-6.294;2024-01-27T06:10:08;8.50;99.90
41720;DHT22;27405;53.316;-6.294;2024-01-27T06:12:33;8.50;99.90
41720;DHT22;27405;53.316;-6.294;2024-01-27T06:15:00;8.50;99.90
41720;DHT22;27405;53.316;-6.294;2024-01-27T06:17:25;8.50;99.90
41720;DHT22;27405;53.316;-6.294;2024-01-27T06:19:51;8.50;99.90
41720;DHT22;27405;53.316;-6.294;2024-01-27T06:22:17;8.50;99.90
41720;DHT22;27405;53.316;-6.294;2024-01-27T06:24:43;8.50;99.90
41720;DHT22;27405;53.316;-6.294;2024-01-27T06:27:09;8.50;99.90
41720;DHT22;27405;53.316;-6.294;2024-01-27T06:29:35;8.50;99.90
41720;DHT22;27405;53.316;-6.294;2024-01-27T06:32:00;8.50;99.90
41720;DHT22;27405;53.316;-6.294;2024-01-27T06:34:26;8.50;99.90
41720;DHT22;27405;53.316;-6.294;2024-01-27T06:36:52;8.50;99.90
41720;DHT22;27405;53.316;-6.294;2024-01-27T06:39:17;8.60;99.90
41720;DHT22;27405;53.316;-6.294;2024-01-27T06:41:43;8.60;99.90
41720;DHT22;27405;53.316;-6.294;2024-01-27T06:44:09;8.60;99.90
41720;DHT22;27405;53.316;-6.294;2024-01-27T06:46:34;8.60;99.90
41720;DHT22;27405;53.316;-6.294;2024-01-27T06:49:00;8.60;99.90
41720;DHT22;27405;53.316;-6.294;2024-01-27T06:51:26;8.60;99.90
41720;DHT22;27405;53.316;-6.294;2024-01-27T06:53:51;8.60;99.90
41720;DHT22;27405;53.316;-6.294;2024-01-27T06:56:17;8.60;99.90
41720;DHT22;27405;53.316;-6.294;2024-01-27T06:58:43;8.60;99.90
41720;DHT22;27405;53.316;-6.294;2024-01-27T07:01:09;8.60;99.90
41720;DHT22;27405;53.316;-6.294;2024-01-27T07:03:34;8.60;99.90
41720;DHT22;27405;53.316;-6.294;2024-01-27T07:06:00;8.60;99.90
41720;DHT22;27405;53.316;-6.294;2024-01-27T07:08:28;8.50;99.90
41720;DHT22;27405;53.316;-6.294;2024-01-27T07:10:55;8.60;99.90
41720;DHT22;27405;53.316;-6.294;2024-01-27T07:13:20;8.50;99.90
41720;DHT22;27405;53.316;-6.294;2024-01-27T07:15:46;8.50;99.90
41720;DHT22;27405;53.316;-6.294;2024-01-27T07:18:12;8.50;99.90
41720;DHT22;27405;53.316;-6.294;2024-01-27T07:20:37;8.50;99.90
41720;DHT22;27405;53.316;-6.294;2024-01-27T07:23:03;8.40;99.90
41720;DHT22;27405;53.316;-6.294;2024-01-27T07:25:29;8.40;99.90
41720;DHT22;27405;53.316;-6.294;2024-01-27T07:27:55;8.40;99.90
41720;DHT22;27405;53.316;-6.294;2024-01-27T07:30:20;8.40;99.90
41720;DHT22;27405;53.316;-6.294;2024-01-27T07:32:46;8.40;99.90
41720;DHT22;27405;53.316;-6.294;2024-01-27T07:35:12;8.40;99.90
41720;DHT22;27405;53.316;-6.294;2024-01-27T07:37:38;8.40;99.90
41720;DHT22;27405;53.316;-6.294;2024-01-27T07:40:04;8.40;99.90
41720;DHT22;27405;53.316;-6.294;2024-01-27T07:42:31;8.40;99.90
41720;DHT22;27405;53.316;-6.294;2024-01-27T07:44:57;8.40;99.90
41720;DHT22;27405;53.316;-6.294;2024-01-27T07:47:23;8.40;99.90
41720;DHT22;27405;53.316;-6.294;2024-01-27T07:49:48;8.40;99.90
41720;DHT22;27405;53.316;-6.294;2024-01-27T07:52:14;8.40;99.90
41720;DHT22;27405;53.316;-6.294;2024-01-27T07:54:40;8.40;99.90
41720;DHT22;27405;53.316;-6.294;2024-01-27T07:57:06;8.50;99.90
41720;DHT22;27405;53.316;-6.294;2024-01-27T07:59:32;8.50;99.90
41720;DHT22;27405;53.316;-6.294;2024-01-27T08:01:59;8.50;99.90
41720;DHT22;27405;53.316;-6.294;2024-01-27T08:04:25;8.60;99.90
41720;DHT22;27405;53.316;-6.294;2024-01-27T08:06:51;8.60;99.90
41720;DHT22;27405;53.316;-6.294;2024-01-27T08:09:17;8.60;99.90
41720;DHT22;27405;53.316;-6.294;2024-01-27T08:11:43;8.60;99.90
41720;DHT22;27405;53.316;-6.294;2024-01-27T08:14:09;8.70;99.90
41720;DHT22;27405;53.316;-6.294;2024-01-27T08:16:35;8.70;99.90
41720;DHT22;27405;53.316;-6.294;2024-01-27T08:19:01;8.70;99.90
41720;DHT22;27405;53.316;-6.294;2024-01-27T08:21:27;8.70;99.90
41720;DHT22;27405;53.316;-6.294;2024-01-27T08:23:53;8.70;99.90
41720;DHT22;27405;53.316;-6.294;2024-01-27T08:26:19;8.80;99.90
41720;DHT22;27405;53.316;-6.294;2024-01-27T08:28:47;8.80;99.90
41720;DHT22;27405;53.316;-6.294;2024-01-27T08:31:12;8.80;99.90
41720;DHT22;27405;53.316;-6.294;2024-01-27T08:33:38;8.80;99.90
41720;DHT22;27405;53.316;-6.294;2024-01-27T08:36:04;8.80;99.90
41720;DHT22;27405;53.316;-6.294;2024-01-27T08:38:30;8.80;99.90
41720;DHT22;27405;53.316;-6.294;2024-01-27T08:40:55;8.80;99.90
41720;DHT22;27405;53.316;-6.294;2024-01-27T08:43:21;8.90;99.90
41720;DHT22;27405;53.316;-6.294;2024-01-27T08:45:47;8.90;99.90
41720;DHT22;27405;53.316;-6.294;2024-01-27T08:48:13;8.90;99.90
41720;DHT22;27405;53.316;-6.294;2024-01-27T08:50:41;9.00;99.90
41720;DHT22;27405;53.316;-6.294;2024-01-27T08:53:07;9.00;99.90
41720;DHT22;27405;53.316;-6.294;2024-01-27T08:55:33;9.10;99.90
41720;DHT22;27405;53.316;-6.294;2024-01-27T08:57:58;9.10;99.90
41720;DHT22;27405;53.316;-6.294;2024-01-27T09:00:24;9.10;99.90
41720;DHT22;27405;53.316;-6.294;2024-01-27T09:02:51;9.10;99.90
41720;DHT22;27405;53.316;-6.294;2024-01-27T09:05:17;9.20;99.90
41720;DHT22;27405;53.316;-6.294;2024-01-27T09:07:43;9.20;99.90
41720;DHT22;27405;53.316;-6.294;2024-01-27T09:10:09;9.20;99.90
41720;DHT22;27405;53.316;-6.294;2024-01-27T09:12:37;9.20;99.90
41720;DHT22;27405;53.316;-6.294;2024-01-27T09:15:03;9.20;99.90
41720;DHT22;27405;53.316;-6.294;2024-01-27T09:17:29;9.20;99.90
41720;DHT22;27405;53.316;-6.294;2024-01-27T09:19:55;9.30;99.90
41720;DHT22;27405;53.316;-6.294;2024-01-27T09:22:21;9.30;99.90
41720;DHT22;27405;53.316;-6.294;2024-01-27T09:24:46;9.30;99.90
41720;DHT22;27405;53.316;-6.294;2024-01-27T09:27:12;9.30;99.90
41720;DHT22;27405;53.316;-6.294;2024-01-27T09:29:37;9.30;99.90
41720;DHT22;27405;53.316;-6.294;2024-01-27T09:32:04;9.40;99.90
41720;DHT22;27405;53.316;-6.294;2024-01-27T09:34:33;9.40;99.90
41720;DHT22;27405;53.316;-6.294;2024-01-27T09:36:58;9.50;99.90
41720;DHT22;27405;53.316;-6.294;2024-01-27T09:39:24;9.50;99.90
41720;DHT22;27405;53.316;-6.294;2024-01-27T09:41:51;9.50;99.90
41720;DHT22;27405;53.316;-6.294;2024-01-27T09:44:18;9.50;99.90
41720;DHT22;27405;53.316;-6.294;2024-01-27T09:46:45;9.60;99.90
41720;DHT22;27405;53.316;-6.294;2024-01-27T09:49:13;9.60;99.90
41720;DHT22;27405;53.316;-6.294;2024-01-27T09:51:41;9.60;99.90
41720;DHT22;27405;53.316;-6.294;2024-01-27T09:54:07;9.70;99.90
41720;DHT22;27405;53.316;-6.294;2024-01-27T09:56:33;9.70;99.90
41720;DHT22;27405;53.316;-6.294;2024-01-27T09:59:00;9.80;99.90
41720;DHT22;27405;53.316;-6.294;2024-01-27T10:01:27;9.80;99.90
41720;DHT22;27405;53.316;-6.294;2024-01-27T10:03:54;9.90;99.90
41720;DHT22;27405;53.316;-6.294;2024-01-27T10:06:20;9.90;99.90
41720;DHT22;27405;53.316;-6.294;2024-01-27T10:08:55;9.90;99.90
41720;DHT22;27405;53.316;-6.294;2024-01-27T10:11:23;10.00;99.90
41720;DHT22;27405;53.316;-6.294;2024-01-27T10:13:55;10.10;99.90
41720;DHT22;27405;53.316;-6.294;2024-01-27T10:16:21;10.10;99.90
41720;DHT22;27405;53.316;-6.294;2024-01-27T10:18:47;10.10;99.90
41720;DHT22;27405;53.316;-6.294;2024-01-27T10:21:17;10.20;99.90
41720;DHT22;27405;53.316;-6.294;2024-01-27T10:23:43;10.20;99.90
41720;DHT22;27405;53.316;-6.294;2024-01-27T10:26:10;10.20;99.90
41720;DHT22;27405;53.316;-6.294;2024-01-27T10:28:35;10.30;99.90
41720;DHT22;27405;53.316;-6.294;2024-01-27T10:31:13;10.30;99.90
41720;DHT22;27405;53.316;-6.294;2024-01-27T10:33:39;10.30;99.90
41720;DHT22;27405;53.316;-6.294;2024-01-27T10:36:06;10.30;99.90
41720;DHT22;27405;53.316;-6.294;2024-01-27T10:38:38;10.30;99.90
41720;DHT22;27405;53.316;-6.294;2024-01-27T10:41:09;10.30;99.90
41720;DHT22;27405;53.316;-6.294;2024-01-27T10:43:39;10.30;99.90
41720;DHT22;27405;53.316;-6.294;2024-01-27T10:46:07;10.30;99.90
41720;DHT22;27405;53.316;-6.294;2024-01-27T10:48:36;10.30;99.90
41720;DHT22;27405;53.316;-6.294;2024-01-27T10:51:09;10.30;99.90
41720;DHT22;27405;53.316;-6.294;2024-01-27T10:53:36;10.30;99.90
41720;DHT22;27405;53.316;-6.294;2024-01-27T10:56:04;10.30;99.90
41720;DHT22;27405;53.316;-6.294;2024-01-27T10:58:36;10.40;99.90
41720;DHT22;27405;53.316;-6.294;2024-01-27T11:01:09;10.50;99.90
41720;DHT22;27405;53.316;-6.294;2024-01-27T11:03:38;10.50;99.90
41720;DHT22;27405;53.316;-6.294;2024-01-27T11:06:08;10.50;99.90
41720;DHT22;27405;53.316;-6.294;2024-01-27T11:08:36;10.50;99.90
41720;DHT22;27405;53.316;-6.294;2024-01-27T11:11:03;10.50;99.90
41720;DHT22;27405;53.316;-6.294;2024-01-27T11:13:30;10.60;99.90
41720;DHT22;27405;53.316;-6.294;2024-01-27T11:15:57;10.60;99.90
41720;DHT22;27405;53.316;-6.294;2024-01-27T11:18:26;10.60;99.90
41720;DHT22;27405;53.316;-6.294;2024-01-27T11:20:53;10.70;99.90
41720;DHT22;27405;53.316;-6.294;2024-01-27T11:23:19;10.70;99.90
41720;DHT22;27405;53.316;-6.294;2024-01-27T11:25:45;10.70;99.90
41720;DHT22;27405;53.316;-6.294;2024-01-27T11:28:15;10.80;99.90
41720;DHT22;27405;53.316;-6.294;2024-01-27T11:30:50;10.80;99.90
41720;DHT22;27405;53.316;-6.294;2024-01-27T11:33:17;10.80;99.90
41720;DHT22;27405;53.316;-6.294;2024-01-27T11:35:42;10.90;99.90
41720;DHT22;27405;53.316;-6.294;2024-01-27T11:38:08;10.90;99.90
41720;DHT22;27405;53.316;-6.294;2024-01-27T11:40:45;10.90;99.90
41720;DHT22;27405;53.316;-6.294;2024-01-27T11:43:12;10.90;99.90
41720;DHT22;27405;53.316;-6.294;2024-01-27T11:45:39;11.00;99.90
41720;DHT22;27405;53.316;-6.294;2024-01-27T11:48:05;11.00;99.90
41720;DHT22;27405;53.316;-6.294;2024-01-27T11:50:32;11.00;99.90
41720;DHT22;27405;53.316;-6.294;2024-01-27T11:52:58;11.00;99.90
41720;DHT22;27405;53.316;-6.294;2024-01-27T11:55:23;11.10;99.90
41720;DHT22;27405;53.316;-6.294;2024-01-27T11:57:49;11.10;99.90
41720;DHT22;27405;53.316;-6.294;2024-01-27T12:00:15;11.10;99.90
41720;DHT22;27405;53.316;-6.294;2024-01-27T12:02:41;11.10;99.90
41720;DHT22;27405;53.316;-6.294;2024-01-27T12:05:08;11.10;99.90
41720;DHT22;27405;53.316;-6.294;2024-01-27T12:07:34;11.10;99.90
41720;DHT22;27405;53.316;-6.294;2024-01-27T12:10:00;11.10;99.90
41720;DHT22;27405;53.316;-6.294;2024-01-27T12:12:26;11.10;99.90
41720;DHT22;27405;53.316;-6.294;2024-01-27T12:14:52;11.10;99.90
41720;DHT22;27405;53.316;-6.294;2024-01-27T12:17:18;11.10;99.90
41720;DHT22;27405;53.316;-6.294;2024-01-27T12:19:51;11.10;99.90
41720;DHT22;27405;53.316;-6.294;2024-01-27T12:22:29;11.20;99.90
41720;DHT22;27405;53.316;-6.294;2024-01-27T12:25:09;11.10;99.90
41720;DHT22;27405;53.316;-6.294;2024-01-27T12:27:35;11.20;99.90
41720;DHT22;27405;53.316;-6.294;2024-01-27T12:30:01;11.20;99.90
41720;DHT22;27405;53.316;-6.294;2024-01-27T12:32:27;11.20;99.90
41720;DHT22;27405;53.316;-6.294;2024-01-27T12:34:53;11.20;99.90
41720;DHT22;27405;53.316;-6.294;2024-01-27T12:37:21;11.20;99.90
41720;DHT22;27405;53.316;-6.294;2024-01-27T12:39:47;11.30;99.90
41720;DHT22;27405;53.316;-6.294;2024-01-27T12:42:16;11.30;99.90
41720;DHT22;27405;53.316;-6.294;2024-01-27T12:44:42;11.30;99.90
41720;DHT22;27405;53.316;-6.294;2024-01-27T12:47:09;11.40;99.90
41720;DHT22;27405;53.316;-6.294;2024-01-27T12:49:35;11.40;99.90
41720;DHT22;27405;53.316;-6.294;2024-01-27T12:52:01;11.40;99.90
41720;DHT22;27405;53.316;-6.294;2024-01-27T12:54:27;11.40;99.90
41720;DHT22;27405;53.316;-6.294;2024-01-27T12:56:53;11.40;99.90
41720;DHT22;27405;53.316;-6.294;2024-01-27T12:59:19;11.40;99.90
41720;DHT22;27405;53.316;-6.294;2024-01-27T13:01:44;11.40;99.90
41720;DHT22;27405;53.316;-6.294;2024-01-27T13:04:10;11.40;99.90
41720;DHT22;27405;53.316;-6.294;2024-01-27T13:06:36;11.40;99.90
41720;DHT22;27405;53.316;-6.294;2024-01-27T13:09:03;11.40;99.90
41720;DHT22;27405;53.316;-6.294;2024-01-27T13:11:29;11.40;99.90
41720;DHT22;27405;53.316;-6.294;2024-01-27T13:13:55;11.50;99.90
41720;DHT22;27405;53.316;-6.294;2024-01-27T13:16:20;11.40;99.90
41720;DHT22;27405;53.316;-6.294;2024-01-27T13:18:46;11.50;99.90
41720;DHT22;27405;53.316;-6.294;2024-01-27T13:21:12;11.50;99.90
41720;DHT22;27405;53.316;-6.294;2024-01-27T13:23:38;11.50;99.90
41720;DHT22;27405;53.316;-6.294;2024-01-27T13:26:03;11.50;99.90
41720;DHT22;27405;53.316;-6.294;2024-01-27T13:28:29;11.50;99.90
41720;DHT22;27405;53.316;-6.294;2024-01-27T13:30:55;11.60;99.90
41720;DHT22;27405;53.316;-6.294;2024-01-27T13:33:21;11.60;99.90
41720;DHT22;27405;53.316;-6.294;2024-01-27T13:35:46;11.60;99.90
41720;DHT22;27405;53.316;-6.294;2024-01-27T13:38:13;11.60;99.90
41720;DHT22;27405;53.316;-6.294;2024-01-27T13:40:39;11.60;99.90
41720;DHT22;27405;53.316;-6.294;2024-01-27T13:43:05;11.60;99.90
41720;DHT22;27405;53.316;-6.294;2024-01-27T13:45:31;11.60;99.90
41720;DHT22;27405;53.316;-6.294;2024-01-27T13:47:57;11.60;99.90
41720;DHT22;27405;53.316;-6.294;2024-01-27T13:50:23;11.60;99.90
41720;DHT22;27405;53.316;-6.294;2024-01-27T13:52:51;11.60;99.90
41720;DHT22;27405;53.316;-6.294;2024-01-27T13:55:17;11.60;99.90
41720;DHT22;27405;53.316;-6.294;2024-01-27T13:57:43;11.60;99.90
41720;DHT22;27405;53.316;-6.294;2024-01-27T14:00:10;11.60;99.90
41720;DHT22;27405;53.316;-6.294;2024-01-27T14:02:36;11.60;99.90
41720;DHT22;27405;53.316;-6.294;2024-01-27T14:05:02;11.60;99.90
41720;DHT22;27405;53.316;-6.294;2024-01-27T14:07:29;11.60;99.90
41720;DHT22;27405;53.316;-6.294;2024-01-27T14:09:55;11.70;99.90
41720;DHT22;27405;53.316;-6.294;2024-01-27T14:12:20;11.70;99.90
41720;DHT22;27405;53.316;-6.294;2024-01-27T14:14:49;11.70;99.90
41720;DHT22;27405;53.316;-6.294;2024-01-27T14:17:15;11.80;99.90
41720;DHT22;27405;53.316;-6.294;2024-01-27T14:19:40;11.80;99.90
41720;DHT22;27405;53.316;-6.294;2024-01-27T14:22:06;11.80;99.90
41720;DHT22;27405;53.316;-6.294;2024-01-27T14:24:32;11.80;99.90
41720;DHT22;27405;53.316;-6.294;2024-01-27T14:27:00;11.80;99.90
41720;DHT22;27405;53.316;-6.294;2024-01-27T14:29:26;11.70;99.90
41720;DHT22;27405;53.316;-6.294;2024-01-27T14:31:52;11.70;99.90
41720;DHT22;27405;53.316;-6.294;2024-01-27T14:34:18;11.70;99.90
41720;DHT22;27405;53.316;-6.294;2024-01-27T14:36:44;11.70;99.90
41720;DHT22;27405;53.316;-6.294;2024-01-27T14:39:09;11.60;99.90
41720;DHT22;27405;53.316;-6.294;2024-01-27T14:41:39;11.60;99.90
41720;DHT22;27405;53.316;-6.294;2024-01-27T14:44:05;11.60;99.90
41720;DHT22;27405;53.316;-6.294;2024-01-27T14:46:31;11.60;99.90
41720;DHT22;27405;53.316;-6.294;2024-01-27T14:48:57;11.60;99.90
41720;DHT22;27405;53.316;-6.294;2024-01-27T14:51:23;11.60;99.90
41720;DHT22;27405;53.316;-6.294;2024-01-27T14:53:49;11.60;99.90
41720;DHT22;27405;53.316;-6.294;2024-01-27T14:56:15;11.60;99.90
41720;DHT22;27405;53.316;-6.294;2024-01-27T14:58:40;11.70;99.90
41720;DHT22;27405;53.316;-6.294;2024-01-27T15:01:06;11.70;99.90
41720;DHT22;27405;53.316;-6.294;2024-01-27T15:03:32;11.60;99.90
41720;DHT22;27405;53.316;-6.294;2024-01-27T15:05:58;11.70;99.90
41720;DHT22;27405;53.316;-6.294;2024-01-27T15:08:24;11.70;99.90
41720;DHT22;27405;53.316;-6.294;2024-01-27T15:10:50;11.70;99.90
41720;DHT22;27405;53.316;-6.294;2024-01-27T15:13:16;11.60;99.90
41720;DHT22;27405;53.316;-6.294;2024-01-27T15:15:48;11.70;99.90
41720;DHT22;27405;53.316;-6.294;2024-01-27T15:18:14;11.60;99.90